sensor_id;sensor_type;location;lat;lon;timestamp;temperature;humidity
11762;DHT22;5938;47.098;15.474;2023-05-07T00:02:36;13.50;99.90
11762;DHT22;5938;47.098;15.474;2023-05-07T00:06:40;13.50;99.90
11762;DHT22;5938;47.098;15.474;2023-05-07T00:10:43;13.50;99.90
11762;DHT22;5938;47.098;15.474;2023-05-07T00:14:48;13.50;99.90
11762;DHT22;5938;47.098;15.474;2023-05-07T00:18:53;13.50;99.90
11762;DHT22;5938;47.098;15.474;2023-05-07T00:22:56;13.40;99.90
11762;DHT22;5938;47.098;15.474;2023-05-07T00:26:59;13.30;99.90
11762;DHT22;5938;47.098;15.474;2023-05-07T00:31:04;13.30;99.90
11762;DHT22;5938;47.098;15.474;2023-05-07T00:35:09;13.30;99.90
11762;DHT22;5938;47.098;15.474;2023-05-07T00:39:12;13.30;99.90
11762;DHT22;5938;47.098;15.474;2023-05-07T00:43:16;13.20;99.90
11762;DHT22;5938;47.098;15.474;2023-05-07T00:47:19;13.10;99.90
11762;DHT22;5938;47.098;15.474;2023-05-07T00:51:23;13.10;99.90
11762;DHT22;5938;47.098;15.474;2023-05-07T00:55:29;13.20;99.90
11762;DHT22;5938;47.098;15.474;2023-05-07T00:59:33;13.00;99.90
11762;DHT22;5938;47.098;15.474;2023-05-07T01:03:36;13.00;99.90
11762;DHT22;5938;47.098;15.474;2023-05-07T01:07:42;12.90;99.90
11762;DHT22;5938;47.098;15.474;2023-05-07T01:11:47;12.90;99.90
11762;DHT22;5938;47.098;15.474;2023-05-07T01:15:51;12.80;99.90
11762;DHT22;5938;47.098;15.474;2023-05-07T01:19:54;12.80;99.90
11762;DHT22;5938;47.098;15.474;2023-05-07T01:24:00;12.70;99.90
11762;DHT22;5938;47.098;15.474;2023-05-07T01:28:03;12.60;99.90
11762;DHT22;5938;47.098;15.474;2023-05-07T01:32:07;12.60;99.90
11762;DHT22;5938;47.098;15.474;2023-05-07T01:36:12;12.50;99.90
11762;DHT22;5938;47.098;15.474;2023-05-07T01:40:17;12.50;99.90
11762;DHT22;5938;47.098;15.474;2023-05-07T01:44:21;12.40;99.90
11762;DHT22;5938;47.098;15.474;2023-05-07T01:48:25;12.30;99.90
11762;DHT22;5938;47.098;15.474;2023-05-07T01:52:28;12.10;99.90
11762;DHT22;5938;47.098;15.474;2023-05-07T01:56:33;11.90;99.90
11762;DHT22;5938;47.098;15.474;2023-05-07T02:00:36;11.90;99.90
11762;DHT22;5938;47.098;15.474;2023-05-07T02:04:40;11.70;99.90
11762;DHT22;5938;47.098;15.474;2023-05-07T02:08:43;11.60;99.90
11762;DHT22;5938;47.098;15.474;2023-05-07T02:12:48;11.60;99.90
11762;DHT22;5938;47.098;15.474;2023-05-07T02:16:51;11.50;99.90
11762;DHT22;5938;47.098;15.474;2023-05-07T02:20:54;11.50;99.90
11762;DHT22;5938;47.098;15.474;2023-05-07T02:24:58;11.40;99.90
11762;DHT22;5938;47.098;15.474;2023-05-07T02:29:03;11.30;99.90
11762;DHT22;5938;47.098;15.474;2023-05-07T02:33:06;11.30;99.90
11762;DHT22;5938;47.098;15.474;2023-05-07T02:37:10;11.20;99.90
11762;DHT22;5938;47.098;15.474;2023-05-07T02:41:13;11.10;99.90
11762;DHT22;5938;47.098;15.474;2023-05-07T02:45:18;11.00;99.90
11762;DHT22;5938;47.098;15.474;2023-05-07T02:49:21;11.00;99.90
11762;DHT22;5938;47.098;15.474;2023-05-07T02:53:24;10.90;99.90
11762;DHT22;5938;47.098;15.474;2023-05-07T02:57:28;10.90;99.90
11762;DHT22;5938;47.098;15.474;2023-05-07T03:01:33;10.90;99.90
11762;DHT22;5938;47.098;15.474;2023-05-07T03:05:36;10.80;99.90
11762;DHT22;5938;47.098;15.474;2023-05-07T03:09:39;10.60;99.90
11762;DHT22;5938;47.098;15.474;2023-05-07T03:13:43;10.60;99.90
11762;DHT22;5938;47.098;15.474;2023-05-07T03:17:47;10.60;99.90
11762;DHT22;5938;47.098;15.474;2023-05-07T03:21:50;10.60;99.90
11762;DHT22;5938;47.098;15.474;2023-05-07T03:25:54;10.60;99.90
11762;DHT22;5938;47.098;15.474;2023-05-07T03:29:57;10.80;99.90
11762;DHT22;5938;47.098;15.474;2023-05-07T03:34:02;10.80;99.90
11762;DHT22;5938;47.098;15.474;2023-05-07T03:38:05;10.80;99.90
11762;DHT22;5938;47.098;15.474;2023-05-07T03:42:08;10.80;99.90
11762;DHT22;5938;47.098;15.474;2023-05-07T03:46:11;10.90;99.90
11762;DHT22;5938;47.098;15.474;2023-05-07T03:50:16;11.00;99.90
11762;DHT22;5938;47.098;15.474;2023-05-07T03:54:19;11.10;99.90
11762;DHT22;5938;47.098;15.474;2023-05-07T03:58:23;11.00;99.90
11762;DHT22;5938;47.098;15.474;2023-05-07T04:02:26;11.00;99.90
11762;DHT22;5938;47.098;15.474;2023-05-07T04:06:31;10.90;99.90
11762;DHT22;5938;47.098;15.474;2023-05-07T04:10:34;10.90;99.90
11762;DHT22;5938;47.098;15.474;2023-05-07T04:14:38;11.00;99.90
11762;DHT22;5938;47.098;15.474;2023-05-07T04:18:41;11.10;99.90
11762;DHT22;5938;47.098;15.474;2023-05-07T04:22:46;11.10;99.90
11762;DHT22;5938;47.098;15.474;2023-05-07T04:26:49;11.10;99.90
11762;DHT22;5938;47.098;15.474;2023-05-07T04:30:54;11.00;99.90
11762;DHT22;5938;47.098;15.474;2023-05-07T04:34:57;11.10;99.90
11762;DHT22;5938;47.098;15.474;2023-05-07T04:39:02;11.10;99.90
11762;DHT22;5938;47.098;15.474;2023-05-07T04:43:05;11.00;99.90
11762;DHT22;5938;47.098;15.474;2023-05-07T04:47:09;11.00;99.90
11762;DHT22;5938;47.098;15.474;2023-05-07T04:51:12;11.10;99.90
11762;DHT22;5938;47.098;15.474;2023-05-07T04:55:17;11.30;99.90
11762;DHT22;5938;47.098;15.474;2023-05-07T04:59:20;11.30;99.90
11762;DHT22;5938;47.098;15.474;2023-05-07T05:03:23;11.50;99.90
11762;DHT22;5938;47.098;15.474;2023-05-07T05:07:27;11.60;99.90
11762;DHT22;5938;47.098;15.474;2023-05-07T05:11:31;11.70;99.90
11762;DHT22;5938;47.098;15.474;2023-05-07T05:15:34;11.80;99.90
11762;DHT22;5938;47.098;15.474;2023-05-07T05:19:37;11.90;99.90
11762;DHT22;5938;47.098;15.474;2023-05-07T05:23:41;12.10;99.90
11762;DHT22;5938;47.098;15.474;2023-05-07T05:27:46;12.30;99.90
11762;DHT22;5938;47.098;15.474;2023-05-07T05:31:49;12.40;99.90
11762;DHT22;5938;47.098;15.474;2023-05-07T05:35:53;12.60;99.90
11762;DHT22;5938;47.098;15.474;2023-05-07T05:39:57;12.60;99.90
11762;DHT22;5938;47.098;15.474;2023-05-07T05:44:02;12.80;99.90
11762;DHT22;5938;47.098;15.474;2023-05-07T05:48:06;13.00;99.90
11762;DHT22;5938;47.098;15.474;2023-05-07T05:52:11;13.20;99.90
11762;DHT22;5938;47.098;15.474;2023-05-07T05:56:15;13.30;99.90
11762;DHT22;5938;47.098;15.474;2023-05-07T06:00:20;13.40;99.90
11762;DHT22;5938;47.098;15.474;2023-05-07T06:04:24;13.60;99.90
11762;DHT22;5938;47.098;15.474;2023-05-07T06:08:29;13.60;99.90
11762;DHT22;5938;47.098;15.474;2023-05-07T06:12:33;13.80;99.90
11762;DHT22;5938;47.098;15.474;2023-05-07T06:16:37;13.80;99.90
11762;DHT22;5938;47.098;15.474;2023-05-07T06:20:40;13.70;99.90
11762;DHT22;5938;47.098;15.474;2023-05-07T06:24:44;13.80;99.90
11762;DHT22;5938;47.098;15.474;2023-05-07T06:28:48;13.80;99.90
11762;DHT22;5938;47.098;15.474;2023-05-07T06:32:52;13.90;99.90
11762;DHT22;5938;47.098;15.474;2023-05-07T06:36:55;13.90;99.90
11762;DHT22;5938;47.098;15.474;2023-05-07T06:40:59;14.10;99.90
11762;DHT22;5938;47.098;15.474;2023-05-07T06:45:02;14.30;99.90
11762;DHT22;5938;47.098;15.474;2023-05-07T06:49:07;14.40;99.90
11762;DHT22;5938;47.098;15.474;2023-05-07T06:53:10;14.50;99.90
11762;DHT22;5938;47.098;15.474;2023-05-07T06:57:13;14.60;99.90
11762;DHT22;5938;47.098;15.474;2023-05-07T07:01:16;14.70;99.90
11762;DHT22;5938;47.098;15.474;2023-05-07T07:05:21;14.70;99.90
11762;DHT22;5938;47.098;15.474;2023-05-07T07:09:24;14.80;99.90
11762;DHT22;5938;47.098;15.474;2023-05-07T07:13:27;15.00;99.90
11762;DHT22;5938;47.098;15.474;2023-05-07T07:17:31;15.20;99.90
11762;DHT22;5938;47.098;15.474;2023-05-07T07:21:35;15.20;99.90
11762;DHT22;5938;47.098;15.474;2023-05-07T07:25:38;15.50;99.90
11762;DHT22;5938;47.098;15.474;2023-05-07T07:29:43;15.70;99.90
11762;DHT22;5938;47.098;15.474;2023-05-07T07:33:46;15.90;99.90
11762;DHT22;5938;47.098;15.474;2023-05-07T07:37:55;16.20;99.90
11762;DHT22;5938;47.098;15.474;2023-05-07T07:41:58;16.50;99.90
11762;DHT22;5938;47.098;15.474;2023-05-07T07:46:02;16.60;99.90
11762;DHT22;5938;47.098;15.474;2023-05-07T07:50:06;16.80;99.90
11762;DHT22;5938;47.098;15.474;2023-05-07T07:54:11;17.00;99.90
11762;DHT22;5938;47.098;15.474;2023-05-07T07:58:14;17.00;99.90
11762;DHT22;5938;47.098;15.474;2023-05-07T08:02:18;17.20;99.90
11762;DHT22;5938;47.098;15.474;2023-05-07T08:06:21;17.70;99.90
11762;DHT22;5938;47.098;15.474;2023-05-07T08:10:26;18.50;99.90
11762;DHT22;5938;47.098;15.474;2023-05-07T08:14:29;19.00;99.90
11762;DHT22;5938;47.098;15.474;2023-05-07T08:18:33;19.10;99.90
11762;DHT22;5938;47.098;15.474;2023-05-07T08:22:39;20.30;99.90
11762;DHT22;5938;47.098;15.474;2023-05-07T08:26:44;22.10;99.90
11762;DHT22;5938;47.098;15.474;2023-05-07T08:30:48;22.90;98.90
11762;DHT22;5938;47.098;15.474;2023-05-07T08:34:51;21.70;99.70
11762;DHT22;5938;47.098;15.474;2023-05-07T08:38:56;21.00;99.90
11762;DHT22;5938;47.098;15.474;2023-05-07T08:43:01;21.70;98.50
11762;DHT22;5938;47.098;15.474;2023-05-07T08:47:06;21.40;99.90
11762;DHT22;5938;47.098;15.474;2023-05-07T08:51:12;22.60;99.00
11762;DHT22;5938;47.098;15.474;2023-05-07T08:55:16;22.60;97.60
11762;DHT22;5938;47.098;15.474;2023-05-07T08:59:22;21.80;98.70
11762;DHT22;5938;47.098;15.474;2023-05-07T09:03:25;23.70;97.40
11762;DHT22;5938;47.098;15.474;2023-05-07T09:07:30;25.20;94.70
11762;DHT22;5938;47.098;15.474;2023-05-07T09:11:34;24.70;94.00
11762;DHT22;5938;47.098;15.474;2023-05-07T09:15:38;24.00;94.40
11762;DHT22;5938;47.098;15.474;2023-05-07T09:19:43;23.50;95.90
11762;DHT22;5938;47.098;15.474;2023-05-07T09:23:48;24.50;94.90
11762;DHT22;5938;47.098;15.474;2023-05-07T09:27:51;25.10;94.60
11762;DHT22;5938;47.098;15.474;2023-05-07T09:31:56;24.90;94.00
11762;DHT22;5938;47.098;15.474;2023-05-07T09:36:05;25.10;93.80
11762;DHT22;5938;47.098;15.474;2023-05-07T09:40:20;25.10;92.40
11762;DHT22;5938;47.098;15.474;2023-05-07T09:44:23;25.10;93.40
11762;DHT22;5938;47.098;15.474;2023-05-07T09:48:30;27.90;90.70
11762;DHT22;5938;47.098;15.474;2023-05-07T09:52:34;30.10;82.50
11762;DHT22;5938;47.098;15.474;2023-05-07T09:56:38;29.90;82.00
11762;DHT22;5938;47.098;15.474;2023-05-07T10:00:43;29.60;84.40
11762;DHT22;5938;47.098;15.474;2023-05-07T10:04:48;29.20;84.10
11762;DHT22;5938;47.098;15.474;2023-05-07T10:08:52;29.40;84.30
11762;DHT22;5938;47.098;15.474;2023-05-07T10:12:55;29.00;77.90
11762;DHT22;5938;47.098;15.474;2023-05-07T10:17:00;28.80;79.50
11762;DHT22;5938;47.098;15.474;2023-05-07T10:21:08;30.10;75.60
11762;DHT22;5938;47.098;15.474;2023-05-07T10:25:18;30.40;76.90
11762;DHT22;5938;47.098;15.474;2023-05-07T10:29:33;28.40;80.00
11762;DHT22;5938;47.098;15.474;2023-05-07T10:33:39;27.20;81.50
11762;DHT22;5938;47.098;15.474;2023-05-07T10:37:44;28.50;81.20
11762;DHT22;5938;47.098;15.474;2023-05-07T10:41:48;29.20;80.20
11762;DHT22;5938;47.098;15.474;2023-05-07T10:46:16;28.10;80.80
11762;DHT22;5938;47.098;15.474;2023-05-07T10:50:22;28.10;82.60
11762;DHT22;5938;47.098;15.474;2023-05-07T10:54:27;29.60;77.20
11762;DHT22;5938;47.098;15.474;2023-05-07T10:58:30;30.20;77.20
11762;DHT22;5938;47.098;15.474;2023-05-07T11:03:05;30.40;75.30
11762;DHT22;5938;47.098;15.474;2023-05-07T11:07:23;29.80;77.10
11762;DHT22;5938;47.098;15.474;2023-05-07T11:11:47;29.70;73.70
11762;DHT22;5938;47.098;15.474;2023-05-07T11:15:53;27.70;78.40
11762;DHT22;5938;47.098;15.474;2023-05-07T11:19:56;27.80;81.10
11762;DHT22;5938;47.098;15.474;2023-05-07T11:24:00;27.70;80.10
11762;DHT22;5938;47.098;15.474;2023-05-07T11:28:06;26.90;83.10
11762;DHT22;5938;47.098;15.474;2023-05-07T11:32:12;27.10;82.60
11762;DHT22;5938;47.098;15.474;2023-05-07T11:36:16;27.40;78.90
11762;DHT22;5938;47.098;15.474;2023-05-07T11:40:19;28.80;78.50
11762;DHT22;5938;47.098;15.474;2023-05-07T11:44:24;28.10;79.30
11762;DHT22;5938;47.098;15.474;2023-05-07T11:48:28;26.50;83.90
11762;DHT22;5938;47.098;15.474;2023-05-07T11:52:31;26.00;83.00
11762;DHT22;5938;47.098;15.474;2023-05-07T11:56:35;28.30;78.20
11762;DHT22;5938;47.098;15.474;2023-05-07T12:00:50;27.40;79.40
11762;DHT22;5938;47.098;15.474;2023-05-07T12:04:54;25.70;82.10
11762;DHT22;5938;47.098;15.474;2023-05-07T12:08:58;26.60;83.70
11762;DHT22;5938;47.098;15.474;2023-05-07T12:13:14;29.60;76.00
11762;DHT22;5938;47.098;15.474;2023-05-07T12:17:19;31.80;73.30
11762;DHT22;5938;47.098;15.474;2023-05-07T12:21:23;31.60;73.40
11762;DHT22;5938;47.098;15.474;2023-05-07T12:25:27;30.80;70.70
11762;DHT22;5938;47.098;15.474;2023-05-07T12:29:32;29.40;74.50
11762;DHT22;5938;47.098;15.474;2023-05-07T12:33:37;28.40;78.20
11762;DHT22;5938;47.098;15.474;2023-05-07T12:37:40;27.30;80.00
11762;DHT22;5938;47.098;15.474;2023-05-07T12:41:53;26.00;83.00
11762;DHT22;5938;47.098;15.474;2023-05-07T12:46:01;24.40;88.40
11762;DHT22;5938;47.098;15.474;2023-05-07T12:50:08;23.30;90.10
11762;DHT22;5938;47.098;15.474;2023-05-07T12:54:11;22.10;91.70
11762;DHT22;5938;47.098;15.474;2023-05-07T12:58:15;21.30;92.70
11762;DHT22;5938;47.098;15.474;2023-05-07T13:02:32;21.20;94.70
11762;DHT22;5938;47.098;15.474;2023-05-07T13:06:38;20.90;97.90
11762;DHT22;5938;47.098;15.474;2023-05-07T13:10:41;20.30;99.90
11762;DHT22;5938;47.098;15.474;2023-05-07T13:14:44;19.60;99.90
11762;DHT22;5938;47.098;15.474;2023-05-07T13:18:48;18.90;99.90
11762;DHT22;5938;47.098;15.474;2023-05-07T13:22:53;18.40;99.90
11762;DHT22;5938;47.098;15.474;2023-05-07T13:26:56;17.80;99.90
11762;DHT22;5938;47.098;15.474;2023-05-07T13:31:01;17.10;99.90
11762;DHT22;5938;47.098;15.474;2023-05-07T13:35:05;16.70;99.90
11762;DHT22;5938;47.098;15.474;2023-05-07T13:39:13;16.30;99.90
11762;DHT22;5938;47.098;15.474;2023-05-07T13:43:16;16.20;99.90
11762;DHT22;5938;47.098;15.474;2023-05-07T13:47:20;16.20;99.90
11762;DHT22;5938;47.098;15.474;2023-05-07T13:51:26;16.20;99.90
11762;DHT22;5938;47.098;15.474;2023-05-07T13:55:31;16.10;99.90
11762;DHT22;5938;47.098;15.474;2023-05-07T13:59:35;16.00;99.90
11762;DHT22;5938;47.098;15.474;2023-05-07T14:03:39;15.90;99.90
11762;DHT22;5938;47.098;15.474;2023-05-07T14:07:43;16.00;99.90
11762;DHT22;5938;47.098;15.474;2023-05-07T14:11:47;16.10;99.90
11762;DHT22;5938;47.098;15.474;2023-05-07T14:15:53;16.20;99.90
11762;DHT22;5938;47.098;15.474;2023-05-07T14:19:57;16.30;99.90
11762;DHT22;5938;47.098;15.474;2023-05-07T14:24:01;16.30;99.90
11762;DHT22;5938;47.098;15.474;2023-05-07T14:28:07;16.40;99.90
11762;DHT22;5938;47.098;15.474;2023-05-07T14:32:10;16.50;99.90
11762;DHT22;5938;47.098;15.474;2023-05-07T14:36:14;16.40;99.90
11762;DHT22;5938;47.098;15.474;2023-05-07T14:40:18;16.40;99.90
11762;DHT22;5938;47.098;15.474;2023-05-07T14:44:24;16.40;99.90
11762;DHT22;5938;47.098;15.474;2023-05-07T14:48:27;16.20;99.90
11762;DHT22;5938;47.098;15.474;2023-05-07T14:52:31;16.10;99.90
11762;DHT22;5938;47.098;15.474;2023-05-07T14:56:35;16.10;99.90
11762;DHT22;5938;47.098;15.474;2023-05-07T15:00:40;16.30;99.90
11762;DHT22;5938;47.098;15.474;2023-05-07T15:04:45;16.30;99.90
11762;DHT22;5938;47.098;15.474;2023-05-07T15:08:49;16.30;99.90
11762;DHT22;5938;47.098;15.474;2023-05-07T15:12:52;16.30;99.90
11762;DHT22;5938;47.098;15.474;2023-05-07T15:16:57;16.30;99.90
11762;DHT22;5938;47.098;15.474;2023-05-07T15:21:01;16.10;99.90
11762;DHT22;5938;47.098;15.474;2023-05-07T15:25:06;16.10;99.90
11762;DHT22;5938;47.098;15.474;2023-05-07T15:29:11;16.30;99.90
11762;DHT22;5938;47.098;15.474;2023-05-07T15:33:17;16.40;99.90
11762;DHT22;5938;47.098;15.474;2023-05-07T15:37:22;16.90;99.90
11762;DHT22;5938;47.098;15.474;2023-05-07T15:41:27;17.10;99.90
11762;DHT22;5938;47.098;15.474;2023-05-07T15:45:32;17.70;99.90
11762;DHT22;5938;47.098;15.474;2023-05-07T15:49:38;17.70;99.90
11762;DHT22;5938;47.098;15.474;2023-05-07T15:53:42;17.70;99.90
11762;DHT22;5938;47.098;15.474;2023-05-07T15:57:47;18.00;99.90
11762;DHT22;5938;47.098;15.474;2023-05-07T16:01:51;18.10;99.90
11762;DHT22;5938;47.098;15.474;2023-05-07T16:05:58;17.60;99.90
11762;DHT22;5938;47.098;15.474;2023-05-07T16:10:04;17.40;99.90
11762;DHT22;5938;47.098;15.474;2023-05-07T16:14:09;17.10;99.90
11762;DHT22;5938;47.098;15.474;2023-05-07T16:18:13;16.80;99.90
11762;DHT22;5938;47.098;15.474;2023-05-07T16:22:20;16.90;99.90
11762;DHT22;5938;47.098;15.474;2023-05-07T16:26:27;17.00;99.90
11762;DHT22;5938;47.098;15.474;2023-05-07T16:30:32;17.00;99.90
11762;DHT22;5938;47.098;15.474;2023-05-07T16:34:37;16.90;99.90
11762;DHT22;5938;47.098;15.474;2023-05-07T16:38:44;16.80;99.90
11762;DHT22;5938;47.098;15.474;2023-05-07T16:42:48;16.60;99.90
11762;DHT22;5938;47.098;15.474;2023-05-07T16:46:57;16.40;99.90
11762;DHT22;5938;47.098;15.474;2023-05-07T16:51:01;16.30;99.90
11762;DHT22;5938;47.098;15.474;2023-05-07T16:55:08;16.40;99.90
11762;DHT22;5938;47.098;15.474;2023-05-07T16:59:13;16.30;99.90
11762;DHT22;5938;47.098;15.474;2023-05-07T17:03:18;16.20;99.90
11762;DHT22;5938;47.098;15.474;2023-05-07T17:07:24;16.20;99.90
11762;DHT22;5938;47.098;15.474;2023-05-07T17:11:33;16.10;99.90
11762;DHT22;5938;47.098;15.474;2023-05-07T17:15:39;16.10;99.90
11762;DHT22;5938;47.098;15.474;2023-05-07T17:19:46;16.00;99.90
11762;DHT22;5938;47.098;15.474;2023-05-07T17:23:51;16.00;99.90
11762;DHT22;5938;47.098;15.474;2023-05-07T17:27:58;15.90;99.90
11762;DHT22;5938;47.098;15.474;2023-05-07T17:32:02;15.80;99.90
11762;DHT22;5938;47.098;15.474;2023-05-07T17:36:09;15.60;99.90
11762;DHT22;5938;47.098;15.474;2023-05-07T17:40:13;15.60;99.90
11762;DHT22;5938;47.098;15.474;2023-05-07T17:44:19;15.70;99.90
11762;DHT22;5938;47.098;15.474;2023-05-07T17:48:24;15.70;99.90
11762;DHT22;5938;47.098;15.474;2023-05-07T17:52:28;15.70;99.90
11762;DHT22;5938;47.098;15.474;2023-05-07T17:56:32;15.70;99.90
11762;DHT22;5938;47.098;15.474;2023-05-07T18:00:38;15.60;99.90
11762;DHT22;5938;47.098;15.474;2023-05-07T18:04:42;15.50;99.90
11762;DHT22;5938;47.098;15.474;2023-05-07T18:08:46;15.30;99.90
11762;DHT22;5938;47.098;15.474;2023-05-07T18:12:50;15.20;99.90
11762;DHT22;5938;47.098;15.474;2023-05-07T18:16:56;15.30;99.90
11762;DHT22;5938;47.098;15.474;2023-05-07T18:21:00;15.20;99.90
11762;DHT22;5938;47.098;15.474;2023-05-07T18:25:05;15.30;99.90
11762;DHT22;5938;47.098;15.474;2023-05-07T18:29:11;15.20;99.90
11762;DHT22;5938;47.098;15.474;2023-05-07T18:33:17;15.10;99.90
11762;DHT22;5938;47.098;15.474;2023-05-07T18:37:23;15.00;99.90
11762;DHT22;5938;47.098;15.474;2023-05-07T18:41:28;14.90;99.90
11762;DHT22;5938;47.098;15.474;2023-05-07T18:45:33;14.80;99.90
11762;DHT22;5938;47.098;15.474;2023-05-07T18:49:48;14.70;99.90
11762;DHT22;5938;47.098;15.474;2023-05-07T18:53:52;14.60;99.90
11762;DHT22;5938;47.098;15.474;2023-05-07T18:57:56;14.50;99.90
11762;DHT22;5938;47.098;15.474;2023-05-07T19:02:00;14.60;99.90
11762;DHT22;5938;47.098;15.474;2023-05-07T19:06:10;14.50;99.90
11762;DHT22;5938;47.098;15.474;2023-05-07T19:10:15;14.50;99.90
11762;DHT22;5938;47.098;15.474;2023-05-07T19:14:21;14.40;99.90
11762;DHT22;5938;47.098;15.474;2023-05-07T19:18:25;14.40;99.90
11762;DHT22;5938;47.098;15.474;2023-05-07T19:22:32;14.40;99.90
11762;DHT22;5938;47.098;15.474;2023-05-07T19:26:37;14.30;99.90
11762;DHT22;5938;47.098;15.474;2023-05-07T19:30:43;14.30;99.90
11762;DHT22;5938;47.098;15.474;2023-05-07T19:34:47;14.40;99.90
11762;DHT22;5938;47.098;15.474;2023-05-07T19:38:53;14.30;99.90
11762;DHT22;5938;47.098;15.474;2023-05-07T19:42:57;14.30;99.90
11762;DHT22;5938;47.098;15.474;2023-05-07T19:47:01;14.20;99.90
11762;DHT22;5938;47.098;15.474;2023-05-07T19:51:07;14.30;99.90
11762;DHT22;5938;47.098;15.474;2023-05-07T19:55:21;14.20;99.90
11762;DHT22;5938;47.098;15.474;2023-05-07T19:59:26;14.10;99.90
11762;DHT22;5938;47.098;15.474;2023-05-07T20:03:32;14.10;99.90
11762;DHT22;5938;47.098;15.474;2023-05-07T20:07:37;14.10;99.90
11762;DHT22;5938;47.098;15.474;2023-05-07T20:11:43;14.10;99.90
11762;DHT22;5938;47.098;15.474;2023-05-07T20:15:47;14.10;99.90
11762;DHT22;5938;47.098;15.474;2023-05-07T20:19:52;14.20;99.90
11762;DHT22;5938;47.098;15.474;2023-05-07T20:23:57;14.10;99.90
11762;DHT22;5938;47.098;15.474;2023-05-07T20:28:04;14.20;99.90
11762;DHT22;5938;47.098;15.474;2023-05-07T20:32:10;14.20;99.90
11762;DHT22;5938;47.098;15.474;2023-05-07T20:36:14;14.00;99.90
11762;DHT22;5938;47.098;15.474;2023-05-07T20:40:17;14.00;99.90
11762;DHT22;5938;47.098;15.474;2023-05-07T20:44:23;14.10;99.90
11762;DHT22;5938;47.098;15.474;2023-05-07T20:48:27;14.00;99.90
11762;DHT22;5938;47.098;15.474;2023-05-07T20:52:32;14.00;99.90
11762;DHT22;5938;47.098;15.474;2023-05-07T20:56:36;14.10;99.90
11762;DHT22;5938;47.098;15.474;2023-05-07T21:00:41;14.00;99.90
11762;DHT22;5938;47.098;15.474;2023-05-07T21:04:45;14.00;99.90
11762;DHT22;5938;47.098;15.474;2023-05-07T21:08:52;13.90;99.90
11762;DHT22;5938;47.098;15.474;2023-05-07T21:12:55;13.90;99.90
11762;DHT22;5938;47.098;15.474;2023-05-07T21:17:00;13.90;99.90
11762;DHT22;5938;47.098;15.474;2023-05-07T21:21:09;13.90;99.90
11762;DHT22;5938;47.098;15.474;2023-05-07T21:25:12;13.90;99.90
11762;DHT22;5938;47.098;15.474;2023-05-07T21:29:18;13.90;99.90
11762;DHT22;5938;47.098;15.474;2023-05-07T21:33:24;14.00;99.90
11762;DHT22;5938;47.098;15.474;2023-05-07T21:37:27;14.00;99.90
11762;DHT22;5938;47.098;15.474;2023-05-07T21:41:30;13.90;99.90
11762;DHT22;5938;47.098;15.474;2023-05-07T21:45:34;13.90;99.90
11762;DHT22;5938;47.098;15.474;2023-05-07T21:49:38;13.90;99.90
11762;DHT22;5938;47.098;15.474;2023-05-07T21:53:42;13.90;99.90
11762;DHT22;5938;47.098;15.474;2023-05-07T21:57:45;13.80;99.90
11762;DHT22;5938;47.098;15.474;2023-05-07T22:02:05;13.80;99.90
11762;DHT22;5938;47.098;15.474;2023-05-07T22:06:10;13.80;99.90
11762;DHT22;5938;47.098;15.474;2023-05-07T22:10:13;13.60;99.90
11762;DHT22;5938;47.098;15.474;2023-05-07T22:14:22;13.50;99.90
11762;DHT22;5938;47.098;15.474;2023-05-07T22:18:26;13.50;99.90
11762;DHT22;5938;47.098;15.474;2023-05-07T22:22:30;13.50;99.90
11762;DHT22;5938;47.098;15.474;2023-05-07T22:26:33;13.50;99.90
11762;DHT22;5938;47.098;15.474;2023-05-07T22:30:37;13.50;99.90
11762;DHT22;5938;47.098;15.474;2023-05-07T22:34:40;13.50;99.90
11762;DHT22;5938;47.098;15.474;2023-05-07T22:38:46;13.40;99.90
11762;DHT22;5938;47.098;15.474;2023-05-07T22:42:49;13.40;99.90
11762;DHT22;5938;47.098;15.474;2023-05-07T22:46:52;13.40;99.90
11762;DHT22;5938;47.098;15.474;2023-05-07T22:50:55;13.40;99.90
11762;DHT22;5938;47.098;15.474;2023-05-07T22:55:00;13.40;99.90
11762;DHT22;5938;47.098;15.474;2023-05-07T22:59:03;13.20;99.90
11762;DHT22;5938;47.098;15.474;2023-05-07T23:03:07;13.30;99.90
11762;DHT22;5938;47.098;15.474;2023-05-07T23:07:11;13.30;99.90
11762;DHT22;5938;47.098;15.474;2023-05-07T23:11:15;13.30;99.90
11762;DHT22;5938;47.098;15.474;2023-05-07T23:15:19;13.30;99.90
11762;DHT22;5938;47.098;15.474;2023-05-07T23:19:22;13.20;99.90
11762;DHT22;5938;47.098;15.474;2023-05-07T23:23:26;13.20;99.90
11762;DHT22;5938;47.098;15.474;2023-05-07T23:27:35;13.20;99.90
11762;DHT22;5938;47.098;15.474;2023-05-07T23:31:39;12.90;99.90
11762;DHT22;5938;47.098;15.474;2023-05-07T23:35:42;12.60;99.90
11762;DHT22;5938;47.098;15.474;2023-05-07T23:39:45;12.60;99.90
11762;DHT22;5938;47.098;15.474;2023-05-07T23:43:50;12.40;99.90
11762;DHT22;5938;47.098;15.474;2023-05-07T23:47:53;12.20;99.90
11762;DHT22;5938;47.098;15.474;2023-05-07T23:51:56;12.20;99.90
11762;DHT22;5938;47.098;15.474;2023-05-07T23:55:59;11.90;99.90
